createdAt,value
2018-12-25T00:01:23.145Z,97.10
2018-12-25T00:04:24.375Z,97.30
2018-12-25T00:07:25.747Z,97.20
2018-12-25T00:10:15.458Z,97.30
2018-12-25T00:13:24.309Z,97.10
2018-12-25T00:16:25.569Z,97.10
2018-12-25T00:19:26.566Z,97.00
2018-12-25T00:22:28.366Z,96.80
2018-12-25T00:28:36.590Z,97.20
2018-12-25T00:34:43.946Z,98.10
2018-12-25T00:41:10.434Z,98.50
2018-12-25T00:44:11.331Z,98.90
2018-12-25T00:47:12.843Z,98.80
2018-12-25T00:50:14.652Z,98.80
2018-12-25T00:53:15.656Z,98.80
2018-12-25T00:59:23.827Z,98.80
2018-12-25T01:02:25.907Z,98.60
2018-12-25T01:05:15.774Z,98.20
2018-12-25T01:08:24.599Z,98.70
2018-12-25T01:11:25.698Z,99.20
2018-12-25T01:14:27.106Z,99.70
2018-12-25T01:17:28.914Z,99.80
2018-12-25T01:20:29.973Z,99.90
2018-12-25T01:23:30.092Z,99.90
2018-12-25T01:26:37.115Z,99.90
2018-12-25T01:29:39.177Z,99.90
2018-12-25T01:32:40.843Z,99.70
2018-12-25T01:35:42.806Z,99.90
2018-12-25T01:38:43.875Z,99.90
2018-12-25T01:41:44.918Z,99.90
2018-12-25T01:44:46.199Z,99.90
2018-12-25T01:47:47.766Z,99.90
2018-12-25T01:50:47.855Z,99.90
2018-12-25T01:53:56.498Z,99.90
2018-12-25T02:00:05.138Z,99.90
2018-12-25T02:03:06.654Z,99.90
2018-12-25T02:06:06.613Z,99.90
2018-12-25T02:12:41.046Z,99.90
2018-12-25T02:15:42.297Z,99.90
2018-12-25T02:18:43.672Z,99.90
2018-12-25T02:21:44.668Z,99.90
2018-12-25T02:24:44.930Z,99.90
2018-12-25T02:34:21.667Z,99.90
2018-12-25T02:37:22.695Z,99.90
2018-12-25T02:40:23.614Z,99.90
2018-12-25T02:43:25.055Z,99.90
2018-12-25T02:46:26.062Z,99.90
2018-12-25T02:49:15.593Z,99.90
2018-12-25T02:52:24.477Z,99.90
2018-12-25T02:55:26.081Z,99.90
2018-12-25T03:01:34.552Z,99.90
2018-12-25T03:04:35.923Z,99.90
2018-12-25T03:07:37.132Z,99.90
2018-12-25T03:10:38.263Z,99.80
2018-12-25T03:13:40.157Z,99.20
2018-12-25T03:16:41.548Z,99.40
2018-12-25T03:19:42.727Z,99.20
2018-12-25T03:22:44.114Z,99.10
2018-12-25T03:25:45.236Z,99.10
2018-12-25T03:31:53.408Z,98.70
2018-12-25T03:34:54.531Z,98.90
2018-12-25T03:37:56.271Z,98.90
2018-12-25T03:40:57.827Z,98.80
2018-12-25T03:43:59.892Z,98.50
2018-12-25T03:47:01.170Z,98.20
2018-12-25T03:50:10.657Z,98.50
2018-12-25T03:53:05.523Z,98.80
2018-12-25T03:56:06.968Z,98.90
2018-12-25T04:02:20.136Z,98.50
2018-12-25T04:05:21.572Z,98.60
2018-12-25T04:08:23.032Z,98.20
2018-12-25T04:11:24.937Z,97.70
2018-12-25T04:14:26.148Z,98.00
2018-12-25T04:17:15.823Z,98.00
2018-12-25T04:23:30.950Z,98.00
2018-12-25T04:26:32.375Z,98.40
2018-12-25T04:32:40.815Z,99.00
2018-12-25T04:35:41.859Z,99.10
2018-12-25T04:38:43.099Z,99.00
2018-12-25T04:41:44.660Z,98.50
2018-12-25T04:44:46.467Z,98.30
2018-12-25T04:47:47.391Z,98.10
2018-12-25T04:50:48.530Z,98.00
2018-12-25T04:56:56.432Z,98.10
2018-12-25T05:03:04.754Z,98.20
2018-12-25T05:06:06.801Z,97.90
2018-12-25T05:09:07.792Z,98.20
2018-12-25T05:12:09.476Z,98.00
2018-12-25T05:15:10.774Z,98.20
2018-12-25T05:18:11.846Z,98.10
2018-12-25T05:21:13.635Z,98.50
2018-12-25T05:24:15.022Z,98.70
2018-12-25T05:27:16.440Z,98.80
2018-12-25T05:33:24.576Z,99.00
2018-12-25T05:36:25.941Z,98.90
2018-12-25T05:39:27.692Z,98.70
2018-12-25T05:42:28.834Z,98.70
2018-12-25T05:45:30.619Z,98.30
2018-12-25T05:48:31.642Z,97.80
2018-12-25T05:51:34.407Z,98.10
2018-12-25T05:54:36.158Z,98.30
2018-12-25T05:57:37.404Z,98.20
2018-12-25T06:03:45.407Z,98.80
2018-12-25T06:06:46.930Z,99.00
2018-12-25T06:09:48.303Z,98.90
2018-12-25T06:12:49.871Z,98.70
2018-12-25T06:15:49.683Z,98.90
2018-12-25T06:18:58.229Z,98.60
2018-12-25T06:21:59.271Z,98.30
2018-12-25T06:25:00.463Z,98.40
2018-12-25T06:28:01.722Z,98.20
2018-12-25T06:34:09.987Z,98.30
2018-12-25T06:37:11.154Z,98.30
2018-12-25T06:40:12.890Z,98.00
2018-12-25T06:43:14.415Z,97.80
2018-12-25T06:46:14.462Z,97.90
2018-12-25T06:49:17.298Z,97.70
2018-12-25T06:52:18.407Z,97.60
2018-12-25T06:55:19.590Z,97.60
2018-12-25T06:58:20.740Z,97.30
2018-12-25T07:04:29.499Z,97.70
2018-12-25T07:07:31.215Z,97.80
2018-12-25T07:10:32.226Z,97.80
2018-12-25T07:13:33.889Z,97.60
2018-12-25T07:16:34.143Z,97.30
2018-12-25T07:19:42.763Z,97.70
2018-12-25T07:22:43.915Z,97.70
2018-12-25T07:25:43.881Z,98.00
2018-12-25T07:28:52.674Z,98.20
2018-12-25T07:31:59.592Z,98.00
2018-12-25T07:35:01.653Z,98.50
2018-12-25T07:38:01.515Z,98.40
2018-12-25T07:41:03.024Z,98.40
2018-12-25T07:44:04.083Z,98.50
2018-12-25T07:47:05.454Z,98.30
2018-12-25T07:50:06.594Z,98.20
2018-12-25T07:53:08.282Z,98.50
2018-12-25T07:56:10.014Z,98.40
2018-12-25T07:59:11.222Z,98.40
2018-12-25T08:02:18.186Z,98.50
2018-12-25T08:05:20.291Z,98.80
2018-12-25T08:08:21.414Z,98.60
2018-12-25T08:11:22.278Z,98.20
2018-12-25T08:14:23.941Z,97.70
2018-12-25T08:17:25.444Z,97.60
2018-12-25T08:20:26.659Z,97.40
2018-12-25T08:23:16.182Z,97.60
2018-12-25T08:29:26.061Z,97.10
2018-12-25T08:32:33.954Z,97.10
2018-12-25T08:35:35.221Z,97.10
2018-12-25T08:38:24.794Z,97.30
2018-12-25T08:44:29.418Z,97.70
2018-12-25T08:47:38.255Z,97.40
2018-12-25T08:50:39.935Z,97.40
2018-12-25T08:53:41.106Z,97.40
2018-12-25T08:56:42.301Z,97.10
2018-12-25T08:59:43.157Z,97.00
2018-12-25T09:05:52.290Z,97.20
2018-12-25T09:08:53.914Z,97.10
2018-12-25T09:11:55.139Z,96.50
2018-12-25T09:14:56.375Z,96.40
2018-12-25T09:17:57.945Z,96.30
2018-12-25T09:20:59.701Z,96.10
2018-12-25T09:24:01.693Z,96.20
2018-12-25T09:27:03.447Z,96.40
2018-12-25T09:30:04.566Z,96.80
2018-12-25T09:36:13.442Z,96.70
2018-12-25T09:39:15.524Z,96.60
2018-12-25T09:42:16.475Z,97.00
2018-12-25T09:45:17.849Z,97.00
2018-12-25T09:48:19.154Z,96.20
2018-12-25T09:51:20.986Z,96.20
2018-12-25T09:54:22.648Z,96.20
2018-12-25T09:57:24.035Z,95.80
2018-12-25T10:00:24.983Z,96.00
2018-12-25T10:06:31.383Z,96.50
2018-12-25T10:16:01.252Z,96.40
2018-12-25T10:19:02.613Z,96.40
2018-12-25T10:22:05.233Z,96.70
2018-12-25T10:25:07.956Z,97.10
2018-12-25T10:28:09.586Z,96.70
2018-12-25T10:31:11.718Z,96.90
2018-12-25T10:37:20.158Z,96.90
2018-12-25T10:40:22.546Z,96.70
2018-12-25T10:43:22.624Z,96.70
2018-12-25T10:49:57.255Z,97.10
2018-12-25T10:56:00.990Z,96.80
2018-12-25T10:59:09.625Z,96.70
2018-12-25T11:02:11.026Z,96.30
2018-12-25T11:05:18.262Z,96.10
2018-12-25T11:08:20.201Z,96.00
2018-12-25T11:11:20.138Z,95.40
2018-12-25T11:14:28.676Z,95.80
2018-12-25T11:17:29.935Z,95.80
2018-12-25T11:20:19.678Z,95.80
2018-12-25T11:23:28.514Z,95.80
2018-12-25T11:26:30.086Z,95.50
2018-12-25T11:29:32.407Z,95.40
2018-12-25T11:32:33.731Z,95.30
2018-12-25T11:35:41.616Z,95.80
2018-12-25T11:38:43.687Z,95.70
2018-12-25T11:41:44.943Z,95.50
2018-12-25T11:44:46.080Z,95.70
2018-12-25T11:47:47.208Z,95.00
2018-12-25T11:50:49.683Z,95.30
2018-12-25T11:53:50.746Z,95.10
2018-12-25T11:56:51.956Z,95.20
2018-12-25T11:59:53.310Z,95.30
2018-12-25T12:02:55.039Z,95.30
2018-12-25T12:06:02.155Z,94.80
2018-12-25T12:09:05.278Z,94.30
2018-12-25T12:12:06.646Z,94.20
2018-12-25T12:15:07.700Z,94.50
2018-12-25T12:18:09.562Z,94.60
2018-12-25T12:21:10.745Z,94.70
2018-12-25T12:24:12.459Z,95.10
2018-12-25T12:27:13.627Z,95.10
2018-12-25T12:30:15.219Z,95.10
2018-12-25T12:33:16.524Z,94.80
2018-12-25T12:36:23.908Z,94.60
2018-12-25T12:39:26.275Z,94.40
2018-12-25T12:42:27.688Z,94.00
2018-12-25T12:45:28.889Z,94.10
2018-12-25T12:48:29.883Z,94.10
2018-12-25T12:51:31.403Z,94.10
2018-12-25T12:54:32.529Z,93.90
2018-12-25T12:57:33.697Z,93.70
2018-12-25T13:00:35.530Z,93.50
2018-12-25T13:03:37.327Z,93.90
2018-12-25T13:06:44.653Z,94.10
2018-12-25T13:09:47.593Z,94.20
2018-12-25T13:12:50.563Z,94.50
2018-12-25T13:15:53.375Z,94.70
2018-12-25T13:18:54.675Z,94.60
2018-12-25T13:25:11.132Z,94.30
2018-12-25T13:28:12.544Z,94.40
2018-12-25T13:34:07.602Z,94.50
2018-12-25T13:40:26.391Z,94.50
2018-12-25T13:43:28.133Z,94.50
2018-12-25T13:46:29.638Z,94.50
2018-12-25T13:49:31.281Z,94.80
2018-12-25T13:52:32.567Z,94.80
2018-12-25T13:55:34.472Z,94.70
2018-12-25T13:58:34.514Z,94.60
2018-12-25T14:01:36.750Z,94.60
2018-12-25T14:10:27.114Z,95.10
2018-12-25T14:19:32.218Z,94.60
2018-12-25T14:22:34.131Z,94.50
2018-12-25T14:25:36.167Z,94.60
2018-12-25T14:28:37.350Z,95.00
2018-12-25T14:31:44.594Z,95.00
2018-12-25T14:34:46.560Z,95.10
2018-12-25T14:37:53.535Z,95.00
2018-12-25T14:40:56.038Z,94.80
2018-12-25T14:44:05.180Z,94.40
2018-12-25T14:47:01.502Z,94.20
2018-12-25T14:50:03.454Z,93.80
2018-12-25T14:53:04.374Z,93.50
2018-12-25T14:56:04.839Z,94.10
2018-12-25T14:59:13.518Z,94.10
2018-12-25T15:02:14.740Z,94.30
2018-12-25T15:05:16.310Z,94.00
2018-12-25T15:11:32.804Z,94.10
2018-12-25T15:14:34.650Z,93.80
2018-12-25T15:17:36.712Z,93.60
2018-12-25T15:20:37.909Z,93.20
2018-12-25T15:23:40.718Z,93.70
2018-12-25T15:26:42.631Z,93.80
2018-12-25T15:29:44.043Z,94.30
2018-12-25T15:32:45.870Z,94.50
2018-12-25T15:35:47.178Z,94.90
2018-12-25T15:38:54.218Z,94.50
2018-12-25T15:42:01.769Z,94.50
2018-12-25T15:48:10.755Z,94.30
2018-12-25T15:51:11.914Z,94.30
2018-12-25T15:54:13.669Z,94.10
2018-12-25T15:57:15.159Z,94.60
2018-12-25T16:00:16.335Z,94.60
2018-12-25T16:03:18.205Z,94.80
2018-12-25T16:06:20.487Z,94.90
2018-12-25T16:12:29.046Z,94.80
2018-12-25T16:15:30.974Z,94.90
2018-12-25T16:18:32.844Z,95.10
2018-12-25T16:21:34.527Z,95.20
2018-12-25T16:24:35.704Z,95.20
2018-12-25T16:27:37.542Z,95.60
2018-12-25T16:30:39.310Z,95.70
2018-12-25T16:33:40.819Z,95.80
2018-12-25T16:36:43.062Z,96.10
2018-12-25T16:42:51.802Z,96.10
2018-12-25T16:45:53.714Z,96.20
2018-12-25T16:48:55.183Z,96.10
2018-12-25T16:51:56.290Z,96.20
2018-12-25T16:54:57.763Z,96.30
2018-12-25T16:57:59.188Z,96.10
2018-12-25T17:01:01.648Z,96.00
2018-12-25T17:04:03.583Z,95.80
2018-12-25T17:07:05.549Z,95.60
2018-12-25T17:13:14.398Z,95.90
2018-12-25T17:16:14.778Z,95.90
2018-12-25T17:22:50.358Z,95.90
2018-12-25T17:25:52.147Z,95.60
2018-12-25T17:28:54.234Z,95.90
2018-12-25T17:31:54.922Z,95.70
2018-12-25T17:44:38.064Z,95.60
2018-12-25T17:47:39.850Z,95.60
2018-12-25T17:50:43.775Z,95.70
2018-12-25T17:53:45.847Z,96.10
2018-12-25T17:56:47.702Z,96.30
2018-12-25T17:59:49.986Z,96.40
2018-12-25T18:02:51.548Z,96.40
2018-12-25T18:05:52.791Z,96.40
2018-12-25T18:08:55.026Z,96.70
2018-12-25T18:15:04.611Z,96.70
2018-12-25T18:18:06.183Z,96.50
2018-12-25T18:21:08.038Z,96.70
2018-12-25T18:24:09.890Z,96.50
2018-12-25T18:27:11.710Z,96.60
2018-12-25T18:30:13.462Z,96.60
2018-12-25T18:33:15.092Z,96.40
2018-12-25T18:36:16.159Z,96.20
2018-12-25T18:39:17.287Z,96.30
2018-12-25T18:45:26.660Z,96.80
2018-12-25T18:48:28.294Z,96.80
2018-12-25T18:51:30.882Z,97.10
2018-12-25T18:54:32.039Z,97.10
2018-12-25T18:57:33.897Z,97.20
2018-12-25T19:00:36.139Z,97.70
2018-12-25T19:06:41.546Z,97.40
2018-12-25T19:16:31.073Z,98.20
2018-12-25T19:19:20.681Z,98.20
2018-12-25T19:28:01.841Z,98.10
2018-12-25T19:31:03.765Z,97.60
2018-12-25T19:34:05.819Z,97.60
2018-12-25T19:37:07.556Z,97.50
2018-12-25T19:40:11.306Z,97.50
2018-12-25T19:43:13.262Z,97.40
2018-12-25T19:46:15.089Z,97.50
2018-12-25T19:49:16.570Z,97.90
2018-12-25T19:52:18.695Z,98.10
2018-12-25T19:55:20.071Z,98.00
2018-12-25T19:58:21.319Z,97.80
2018-12-25T20:01:12.034Z,97.60
2018-12-25T20:08:07.175Z,97.30
2018-12-25T20:11:09.006Z,97.40
2018-12-25T20:17:17.810Z,97.40
2018-12-25T20:20:46.485Z,97.50
2018-12-25T20:24:10.174Z,97.40
2018-12-25T20:27:13.043Z,97.60
2018-12-25T20:30:14.343Z,97.80
2018-12-25T20:33:16.330Z,98.00
2018-12-25T20:36:18.510Z,97.70
2018-12-25T20:43:12.838Z,97.50
2018-12-25T20:49:20.955Z,97.60
2018-12-25T20:52:22.458Z,97.70
2018-12-25T20:55:50.306Z,97.80
2018-12-25T20:59:18.822Z,97.50
2018-12-25T21:05:27.266Z,97.30
2018-12-25T21:08:29.416Z,97.50
2018-12-25T21:11:31.685Z,97.50
2018-12-25T21:14:33.783Z,97.50
2018-12-25T21:17:41.230Z,97.80
2018-12-25T21:20:43.843Z,97.90
2018-12-25T21:23:45.474Z,99.90
2018-12-25T21:26:47.458Z,99.90
2018-12-25T21:29:49.497Z,99.20
2018-12-25T21:32:51.595Z,98.30
2018-12-25T21:35:53.710Z,98.00
2018-12-25T21:38:54.735Z,98.30
2018-12-25T21:45:02.376Z,98.40
2018-12-25T21:51:11.604Z,98.60
2018-12-25T21:54:13.511Z,98.90
2018-12-25T21:57:14.883Z,98.90
2018-12-25T22:00:16.831Z,98.90
2018-12-25T22:03:18.669Z,98.70
2018-12-25T22:06:20.414Z,98.70
2018-12-25T22:09:22.062Z,98.80
2018-12-25T22:12:23.820Z,98.90
2018-12-25T22:15:25.315Z,98.80
2018-12-25T22:18:32.966Z,99.10
2018-12-25T22:21:34.838Z,99.00
2018-12-25T22:24:37.345Z,98.70
2018-12-25T22:27:39.071Z,98.80
2018-12-25T22:30:40.515Z,98.60
2018-12-25T22:33:40.609Z,98.40
2018-12-25T22:36:41.504Z,98.40
2018-12-25T22:39:43.133Z,97.90
2018-12-25T22:42:44.603Z,97.80
2018-12-25T22:45:45.762Z,97.80
2018-12-25T22:51:54.734Z,97.60
2018-12-25T22:54:56.571Z,97.70
2018-12-25T22:57:58.209Z,97.80
2018-12-25T23:00:59.802Z,98.10
2018-12-25T23:04:01.181Z,98.30
2018-12-25T23:07:02.371Z,98.50
2018-12-25T23:10:03.637Z,98.30
2018-12-25T23:13:04.738Z,98.00
2018-12-25T23:16:07.947Z,98.00
2018-12-25T23:19:14.807Z,97.90
2018-12-25T23:22:16.218Z,97.70
2018-12-25T23:25:16.194Z,97.20
2018-12-25T23:28:17.306Z,97.00
2018-12-25T23:31:18.599Z,96.90
2018-12-25T23:34:20.611Z,96.80
2018-12-25T23:37:21.853Z,96.70
2018-12-25T23:40:23.157Z,96.50
2018-12-25T23:43:24.297Z,96.50
2018-12-25T23:46:25.489Z,96.60
2018-12-25T23:49:32.979Z,96.70
2018-12-25T23:52:34.306Z,96.50
2018-12-25T23:55:34.107Z,96.30
2018-12-25T23:58:33.730Z,96.10
